»·PEaware :: ASA2855 KSEA-KBOI

ASA2855 :: KSEA-KBOI

FLIGHT INFORMATION

Flight Status: Arrived
Operator:
Alaska Airlines
More flights by this operator :: More flights under this callsign
Pilot: Andrew C. (28419)
Aircraft: BOEING 737-800
(B738)
More flights by this aircraft type
Origin: KSEA Seattle-Tacoma Intl
United States
Destination: KBOI Boise Air Terminal/Gowen
United States
More flights between these airports :: More routes between these airports
Route: SUMMA2 SUMMA J54 BKE DEVLE KYAAN3
File this flight plan on PilotEdge
Remarks: RMK / SIMBRIEF
Altitude:
(Current/Filed)
35,000ft
Speed:
(Current/Filed)
440kts
Departed: 13-Sep-20 01:14 PM
Arrived: 13-Sep-20 02:26 PM
Distance/Time
Traveled:
347nm/1:12
Distance/Time
To Go:
Arrived

Flight Plot

Page will automatically refresh every two minutes.

Flight plan parsing failed; only flown route is shown


Map Options




Map Legend


Flown Route
Filed Route
Departure Airport
Arrival Airport
Navaid (VOR, NDB)
Fix

Horizontal Profiles

Position Reports

Time Latitude Longitude Heading Altitude Ground
Speed
13-Sep-20 12:49 47.447820 -122.302693 39 443ft 0kts
13-Sep-20 12:50 47.447820 -122.302693 39 443ft 0kts
13-Sep-20 12:51 47.447820 -122.302693 39 443ft 0kts
13-Sep-20 12:52 47.447820 -122.302693 39 443ft 0kts
13-Sep-20 12:53 47.447820 -122.302693 39 443ft 0kts
13-Sep-20 12:54 47.447820 -122.302693 39 443ft 0kts
13-Sep-20 12:55 47.447820 -122.302693 39 443ft 0kts
13-Sep-20 12:56 47.447820 -122.302693 39 443ft 0kts
13-Sep-20 12:57 47.447820 -122.302693 39 443ft 0kts
13-Sep-20 12:58 47.447820 -122.302693 39 443ft 0kts
13-Sep-20 12:59 47.447820 -122.302693 39 443ft 0kts
13-Sep-20 13:00 47.447820 -122.302693 39 443ft 0kts
13-Sep-20 13:01 47.447820 -122.302693 39 443ft 0kts
13-Sep-20 13:02 47.447820 -122.302693 39 443ft 0kts
13-Sep-20 13:03 47.447820 -122.302693 39 443ft 0kts
13-Sep-20 13:04 47.447758 -122.302767 38 443ft 1kts
13-Sep-20 13:05 47.447198 -122.302915 339 443ft 2kts
13-Sep-20 13:06 47.446927 -122.302615 309 443ft 0kts
13-Sep-20 13:07 47.446927 -122.302615 309 443ft 0kts
13-Sep-20 13:09 47.447650 -122.304784 264 443ft 11kts
13-Sep-20 13:10 47.450436 -122.306297 2 443ft 15kts
13-Sep-20 13:11 47.454717 -122.306242 1 443ft 18kts
13-Sep-20 13:12 47.460619 -122.306178 1 443ft 22kts
13-Sep-20 13:13 47.463580 -122.306361 321 443ft 1kts
13-Sep-20 13:14 47.456601 -122.307827 180 443ft 118kts
13-Sep-20 13:15 47.408313 -122.306603 187 1967ft 214kts
13-Sep-20 13:16 47.341471 -122.318553 176 4300ft 258kts
13-Sep-20 13:17 47.269942 -122.312876 178 7432ft 260kts
13-Sep-20 13:18 47.200710 -122.280424 159 10257ft 275kts
13-Sep-20 13:19 47.120518 -122.237574 166 11996ft 321kts
13-Sep-20 13:20 47.054277 -122.204875 165 13982ft 331kts
13-Sep-20 13:21 46.965158 -122.160796 165 16449ft 345kts
13-Sep-20 13:22 46.872807 -122.114976 164 18721ft 357kts
13-Sep-20 13:23 46.777311 -122.067518 164 20817ft 369kts
13-Sep-20 13:24 46.679647 -122.018965 164 22692ft 380kts
13-Sep-20 13:25 46.593691 -121.925128 126 24356ft 411kts
13-Sep-20 13:26 46.535456 -121.779276 124 25908ft 422kts
13-Sep-20 13:26 46.486244 -121.655151 124 27074ft 430kts
13-Sep-20 13:28 46.415314 -121.478125 124 28577ft 441kts
13-Sep-20 13:29 46.353029 -121.323102 125 29772ft 449kts
13-Sep-20 13:29 46.300579 -121.192971 125 30589ft 457kts
13-Sep-20 13:30 46.236345 -121.034340 125 31969ft 455kts
13-Sep-20 13:31 46.172397 -120.877373 125 33183ft 454kts
13-Sep-20 13:32 46.108474 -120.721348 125 34302ft 454kts
13-Sep-20 13:33 46.044062 -120.565053 125 34948ft 455kts
13-Sep-20 13:34 45.979443 -120.409091 125 34952ft 450kts
13-Sep-20 13:35 45.915027 -120.254519 126 34999ft 450kts
13-Sep-20 13:36 45.850978 -120.101627 126 34999ft 451kts
13-Sep-20 13:37 45.785941 -119.947198 126 35000ft 451kts
13-Sep-20 13:38 45.721021 -119.793982 126 34999ft 450kts
13-Sep-20 13:39 45.654307 -119.642266 126 34968ft 452kts
13-Sep-20 13:40 45.588319 -119.489898 126 34963ft 451kts
13-Sep-20 13:41 45.522874 -119.338329 126 34969ft 452kts
13-Sep-20 13:42 45.456868 -119.185880 126 34979ft 452kts
13-Sep-20 13:43 45.390651 -119.033715 126 34980ft 453kts
13-Sep-20 13:44 45.324842 -118.883266 126 35027ft 453kts
13-Sep-20 13:45 45.257848 -118.731023 126 35063ft 455kts
13-Sep-20 13:46 45.190457 -118.578616 125 35063ft 454kts
13-Sep-20 13:47 45.123044 -118.427013 125 35064ft 455kts
13-Sep-20 13:48 45.055720 -118.276381 126 35060ft 454kts
13-Sep-20 13:49 44.988059 -118.125766 126 34525ft 448kts
13-Sep-20 13:50 44.922090 -117.979950 126 33522ft 438kts
13-Sep-20 13:51 44.855022 -117.838852 138 32522ft 426kts
13-Sep-20 13:52 44.762999 -117.740943 150 31524ft 411kts
13-Sep-20 13:53 44.668501 -117.653812 151 30521ft 402kts
13-Sep-20 13:54 44.575765 -117.570311 151 29505ft 386kts
13-Sep-20 13:55 44.486759 -117.490919 152 27744ft 375kts
13-Sep-20 13:56 44.399879 -117.413808 152 25907ft 367kts
13-Sep-20 13:57 44.314689 -117.338481 152 24091ft 358kts
13-Sep-20 13:58 44.231633 -117.265059 151 22314ft 349kts
13-Sep-20 13:59 44.157822 -117.177671 141 20585ft 346kts
13-Sep-20 14:00 44.088448 -117.086766 141 18893ft 337kts
13-Sep-20 14:02 44.009573 -116.983931 141 16969ft 329kts
13-Sep-20 14:02 43.957396 -116.907287 128 15549ft 328kts
13-Sep-20 14:03 43.907120 -116.803620 126 13941ft 320kts
13-Sep-20 14:04 43.857997 -116.702487 126 12346ft 313kts
13-Sep-20 14:05 43.810136 -116.604972 126 10917ft 298kts
13-Sep-20 14:06 43.764270 -116.512696 125 9770ft 277kts
13-Sep-20 14:07 43.720830 -116.425599 125 8443ft 268kts
13-Sep-20 14:08 43.681834 -116.345806 120 7961ft 235kts
13-Sep-20 14:09 43.654953 -116.266393 115 7945ft 230kts
13-Sep-20 14:10 43.629440 -116.185821 115 7945ft 229kts
13-Sep-20 14:11 43.603989 -116.105359 115 7945ft 229kts
13-Sep-20 14:12 43.578439 -116.024577 114 7945ft 229kts
13-Sep-20 14:13 43.552982 -115.943941 114 7945ft 229kts
13-Sep-20 14:14 43.527573 -115.863358 114 7945ft 229kts
13-Sep-20 14:15 43.502211 -115.782855 114 7945ft 229kts
13-Sep-20 14:16 43.462136 -115.725412 189 7945ft 224kts
13-Sep-20 14:17 43.421897 -115.782114 272 7946ft 230kts
13-Sep-20 14:18 43.439919 -115.856391 291 7940ft 187kts
13-Sep-20 14:19 43.462234 -115.922984 293 7350ft 186kts
13-Sep-20 14:20 43.484616 -115.987838 294 6321ft 185kts
13-Sep-20 14:21 43.506534 -116.051378 294 5295ft 181kts
13-Sep-20 14:22 43.527359 -116.112048 295 4316ft 151kts
13-Sep-20 14:23 43.544982 -116.163076 294 3500ft 147kts
13-Sep-20 14:24 43.562102 -116.213234 296 2868ft 119kts
13-Sep-20 14:25 43.568236 -116.229001 30 2851ft 14kts
13-Sep-20 14:26 43.567451 -116.225160 116 2856ft 17kts
13-Sep-20 14:27 43.567355 -116.221237 24 2859ft 2kts
13-Sep-20 14:28 43.554350 -116.190679 297 3125ft 145kts

Navigation Log

Ident Type
Flight plan parsing failed, navigation log unavailable